Time;durP1;ratioP1;P1;durP2;ratioP2;P2;SDS_P1;SDS_P2;PMS_P1;PMS_P2;Temp;Humidity;BMP_temperature;BMP_pressure;BME280_temperature;BME280_humidity;BME280_pressure;Samples;Min_cycle;Max_cycle;Signal;HPM_P1;HPM_P2
2023/10/26 00:02:21;;;;;;;4.00;3.70;;;;;;;10.71;100.00;96074.22;6222941;28;20583;-58
2023/10/26 00:05:24;;;;;;;4.40;3.97;;;;;;;10.53;100.00;96057.06;6217907;28;20570;-58
2023/10/26 00:08:27;;;;;;;3.73;3.43;;;;;;;10.48;100.00;96055.25;6219387;28;20625;-58
2023/10/26 00:11:30;;;;;;;3.60;3.30;;;;;;;10.44;100.00;96054.25;6225504;28;20192;-58
2023/10/26 00:14:33;;;;;;;3.70;3.40;;;;;;;10.54;100.00;96083.44;6227546;28;20200;-60
2023/10/26 00:17:39;;;;;;;3.83;3.43;;;;;;;10.46;100.00;96086.69;6223180;28;20200;-58
2023/10/26 00:20:43;;;;;;;3.83;3.53;;;;;;;10.39;100.00;96091.53;6222114;28;20691;-59
2023/10/26 00:23:45;;;;;;;3.70;3.40;;;;;;;10.23;100.00;96068.75;6233816;28;20208;-59
2023/10/26 00:26:48;;;;;;;3.80;3.50;;;;;;;10.03;100.00;96041.25;6221281;28;20307;-59
2023/10/26 00:29:50;;;;;;;7.00;4.07;;;;;;;10.14;100.00;96081.84;6214133;28;20269;-59
2023/10/26 00:32:52;;;;;;;4.80;4.40;;;;;;;10.11;100.00;96076.31;6232245;28;20388;-58
2023/10/26 00:35:55;;;;;;;4.37;3.90;;;;;;;9.97;100.00;96084.91;6227215;28;20196;-58
2023/10/26 00:38:59;;;;;;;3.57;3.27;;;;;;;9.89;100.00;96096.13;6202251;28;20248;-58
2023/10/26 00:42:01;;;;;;;3.93;3.57;;;;;;;9.81;100.00;96105.50;6222983;28;20197;-60
2023/10/26 00:45:05;;;;;;;3.40;3.10;;;;;;;9.70;100.00;96103.16;6232559;28;20655;-58
2023/10/26 00:48:07;;;;;;;4.63;3.27;;;;;;;9.75;100.00;96121.75;6221765;28;20676;-58
2023/10/26 00:51:10;;;;;;;3.67;3.30;;;;;;;9.64;100.00;96125.53;6221548;28;20196;-58
2023/10/26 00:54:13;;;;;;;3.53;3.23;;;;;;;9.63;100.00;96123.94;6236515;28;20228;-60
2023/10/26 00:57:18;;;;;;;3.57;2.63;;;;;;;9.62;100.00;96140.97;6227870;28;20556;-58
2023/10/26 01:00:21;;;;;;;4.73;4.00;;;;;;;9.53;100.00;96144.19;6217272;28;20240;-60
2023/10/26 01:03:27;;;;;;;3.83;3.53;;;;;;;9.56;100.00;96142.88;6231727;28;20330;-59
2023/10/26 01:06:29;;;;;;;6.33;3.10;;;;;;;10.03;100.00;96137.00;6230156;28;20273;-60
2023/10/26 01:09:32;;;;;;;2.30;2.10;;;;;;;10.41;100.00;96142.66;6218749;28;20264;-58
2023/10/26 01:12:34;;;;;;;1.97;1.80;;;;;;;10.44;100.00;96117.31;6219946;28;20329;-59
2023/10/26 01:15:37;;;;;;;5.30;1.87;;;;;;;10.63;100.00;96136.06;6231755;28;20193;-60
2023/10/26 01:18:40;;;;;;;2.33;1.20;;;;;;;11.04;100.00;96131.97;6228937;28;20192;-58
2023/10/26 01:21:53;;;;;;;0.97;0.97;;;;;;;10.94;100.00;96133.94;6213190;28;20223;-58
2023/10/26 01:24:55;;;;;;;2.87;1.23;;;;;;;11.01;100.00;96132.50;6235389;28;20192;-59
2023/10/26 01:27:57;;;;;;;1.07;0.83;;;;;;;10.93;100.00;96127.00;6227849;28;20559;-59
2023/10/26 01:30:59;;;;;;;1.80;1.03;;;;;;;10.92;100.00;96138.75;6221754;28;20498;-59
2023/10/26 01:34:02;;;;;;;0.60;0.60;;;;;;;11.14;100.00;96135.59;6230127;28;20279;-59
2023/10/26 01:37:06;;;;;;;0.90;0.80;;;;;;;11.68;100.00;96135.22;6231387;28;20200;-58
2023/10/26 01:40:08;;;;;;;1.00;0.90;;;;;;;11.90;100.00;96133.91;6224944;28;20216;-60
2023/10/26 01:43:11;;;;;;;0.97;0.90;;;;;;;11.78;100.00;96140.44;6221281;28;20200;-58
2023/10/26 01:46:13;;;;;;;2.00;1.13;;;;;;;11.81;100.00;96150.50;6234534;28;20620;-60
2023/10/26 01:49:15;;;;;;;2.27;0.97;;;;;;;11.76;100.00;96142.56;6228014;28;20188;-59
2023/10/26 01:52:18;;;;;;;2.43;1.40;;;;;;;11.76;100.00;96145.25;6225007;28;20578;-60
2023/10/26 01:55:20;;;;;;;2.17;1.30;;;;;;;11.99;100.00;96156.19;6229569;28;20203;-58
2023/10/26 01:58:22;;;;;;;1.00;0.90;;;;;;;11.92;100.00;96156.56;6221706;28;20272;-60
2023/10/26 02:01:24;;;;;;;0.93;0.93;;;;;;;12.07;100.00;96142.22;6224956;28;20235;-59
2023/10/26 02:04:26;;;;;;;1.33;0.90;;;;;;;12.00;100.00;96147.88;6224029;28;20271;-59
2023/10/26 02:07:29;;;;;;;1.30;1.00;;;;;;;11.90;100.00;96142.69;6231424;28;20196;-60
2023/10/26 02:10:32;;;;;;;2.60;1.40;;;;;;;11.91;100.00;96146.94;6217832;28;20276;-58
2023/10/26 02:13:38;;;;;;;1.30;1.17;;;;;;;11.94;100.00;96133.03;6217650;28;20193;-59
2023/10/26 02:16:41;;;;;;;1.93;1.10;;;;;;;11.90;100.00;96116.00;6228106;28;20205;-58
2023/10/26 02:19:43;;;;;;;0.80;0.73;;;;;;;11.98;100.00;96126.03;6223175;28;20693;-60
2023/10/26 02:22:46;;;;;;;2.13;1.23;;;;;;;12.04;100.00;96134.78;6210813;28;20200;-58
2023/10/26 02:25:48;;;;;;;1.33;1.20;;;;;;;12.19;97.24;96123.06;6222021;28;20348;-59
2023/10/26 02:28:50;;;;;;;1.00;0.93;;;;;;;12.26;96.22;96116.28;6234601;28;20227;-59
2023/10/26 02:31:53;;;;;;;2.93;1.23;;;;;;;12.55;92.80;96099.25;6230019;28;20205;-58
2023/10/26 02:34:55;;;;;;;2.40;1.20;;;;;;;12.54;92.76;96101.16;6227009;28;20574;-60
2023/10/26 02:37:57;;;;;;;0.90;0.90;;;;;;;12.34;95.53;96098.81;6238324;28;20250;-58
2023/10/26 02:41:04;;;;;;;1.93;1.10;;;;;;;12.38;93.92;96107.81;6231093;28;20291;-59
2023/10/26 02:44:06;;;;;;;1.47;0.93;;;;;;;12.29;95.50;96104.22;6225544;28;20201;-59
2023/10/26 02:47:09;;;;;;;1.43;0.93;;;;;;;12.35;93.45;96100.38;6236859;28;20199;-58
2023/10/26 02:50:11;;;;;;;1.83;1.13;;;;;;;12.49;91.30;96101.22;6233058;28;20572;-59
2023/10/26 02:53:14;;;;;;;3.20;0.90;;;;;;;12.52;90.33;96092.63;6219634;28;20689;-59
2023/10/26 02:56:16;;;;;;;0.73;0.70;;;;;;;12.70;88.52;96100.88;6230228;28;20604;-59
2023/10/26 02:59:18;;;;;;;0.73;0.67;;;;;;;12.63;86.96;96101.28;6237659;28;20347;-59
2023/10/26 03:02:20;;;;;;;0.60;0.60;;;;;;;12.56;88.05;96096.31;6227828;28;20233;-59
2023/10/26 03:05:22;;;;;;;0.77;0.77;;;;;;;12.51;87.85;96099.06;6224509;28;20203;-59
2023/10/26 03:08:24;;;;;;;2.03;0.77;;;;;;;12.45;88.22;96100.22;6235808;28;20201;-59
2023/10/26 03:11:27;;;;;;;0.73;0.73;;;;;;;12.42;87.82;96089.34;6223171;28;20369;-59
2023/10/26 03:14:30;;;;;;;1.20;0.60;;;;;;;12.50;86.34;96091.34;6225779;28;20770;-60
2023/10/26 03:17:32;;;;;;;0.80;0.57;;;;;;;12.33;89.85;96102.56;6231266;28;20196;-59
2023/10/26 03:20:34;;;;;;;1.13;0.50;;;;;;;12.06;95.00;96104.03;6237362;28;20588;-59
2023/10/26 03:23:36;;;;;;;0.63;0.40;;;;;;;11.80;96.64;96100.91;6227514;28;20200;-60
2023/10/26 03:26:39;;;;;;;0.60;0.57;;;;;;;11.62;99.06;96109.69;6219317;28;20193;-59
2023/10/26 03:29:41;;;;;;;0.90;0.50;;;;;;;11.46;100.00;96109.09;6234342;28;20200;-59
2023/10/26 03:32:45;;;;;;;0.60;0.60;;;;;;;11.34;100.00;96109.50;6216355;28;20576;-59
2023/10/26 03:35:47;;;;;;;4.53;0.57;;;;;;;11.26;100.00;96106.66;6223533;28;20193;-60
2023/10/26 03:38:52;;;;;;;0.60;0.53;;;;;;;11.15;100.00;96100.66;6235223;28;20238;-59
2023/10/26 03:41:54;;;;;;;1.03;0.33;;;;;;;11.19;100.00;96098.22;6222065;28;20200;-60
2023/10/26 03:44:57;;;;;;;0.37;0.37;;;;;;;11.02;100.00;96096.00;6229034;28;20780;-59
2023/10/26 03:48:00;;;;;;;1.60;0.63;;;;;;;10.94;100.00;96100.09;6225957;28;20558;-60
2023/10/26 03:51:03;;;;;;;0.90;0.60;;;;;;;10.89;100.00;96108.13;6235487;28;20211;-58
2023/10/26 03:54:05;;;;;;;0.57;0.40;;;;;;;10.97;100.00;96104.03;6231036;28;20196;-59
2023/10/26 03:57:08;;;;;;;1.10;0.40;;;;;;;10.89;100.00;96102.81;6224777;28;20224;-59
2023/10/26 04:00:11;;;;;;;0.97;0.40;;;;;;;10.86;100.00;96103.38;6235383;28;20252;-59
2023/10/26 04:03:14;;;;;;;2.63;0.60;;;;;;;10.85;100.00;96115.91;6217643;28;20666;-59
2023/10/26 04:06:17;;;;;;;0.53;0.40;;;;;;;10.84;100.00;96113.53;6225837;28;20206;-59
2023/10/26 04:09:19;;;;;;;0.43;0.40;;;;;;;10.71;100.00;96098.97;6231218;28;20277;-58
2023/10/26 04:12:21;;;;;;;0.60;0.30;;;;;;;11.03;100.00;96109.06;6234359;28;20188;-58
2023/10/26 04:15:27;;;;;;;0.60;0.40;;;;;;;11.02;100.00;96114.66;6232646;28;20491;-58
2023/10/26 04:18:29;;;;;;;0.83;0.67;;;;;;;10.89;100.00;96102.81;6220606;28;20656;-58
2023/10/26 04:21:31;;;;;;;0.47;0.40;;;;;;;11.01;100.00;96118.41;6238989;28;20576;-59
2023/10/26 04:24:34;;;;;;;0.90;0.40;;;;;;;11.17;99.21;96111.03;6223021;28;20601;-58
2023/10/26 04:27:37;;;;;;;0.33;0.30;;;;;;;11.08;99.75;96082.34;6220267;28;20250;-58
2023/10/26 04:30:39;;;;;;;2.17;0.30;;;;;;;11.20;100.00;96097.16;6226142;28;20189;-58
2023/10/26 04:33:41;;;;;;;0.53;0.30;;;;;;;11.10;100.00;96077.53;6230157;28;20196;-58
2023/10/26 04:36:43;;;;;;;0.40;0.40;;;;;;;11.24;100.00;96100.84;6221948;28;20271;-58
2023/10/26 04:39:45;;;;;;;0.87;0.40;;;;;;;11.39;97.95;96108.66;6227655;28;20204;-59
2023/10/26 04:42:47;;;;;;;0.40;0.40;;;;;;;11.59;91.62;96104.94;6234953;28;20575;-58
2023/10/26 04:45:49;;;;;;;0.40;0.40;;;;;;;11.72;94.88;96095.41;6230158;28;20200;-58
2023/10/26 04:48:52;;;;;;;1.23;0.50;;;;;;;11.81;91.82;96088.34;6223172;28;20256;-58
2023/10/26 04:51:54;;;;;;;0.50;0.40;;;;;;;11.91;91.59;96085.56;6228462;28;20242;-58
2023/10/26 04:54:56;;;;;;;0.63;0.40;;;;;;;11.90;91.23;96086.66;6225930;28;20188;-60
2023/10/26 04:57:59;;;;;;;0.30;0.30;;;;;;;12.07;85.96;96089.63;6221951;28;20272;-58
2023/10/26 05:01:01;;;;;;;0.67;0.40;;;;;;;12.23;84.28;96086.72;6224762;28;20266;-58
2023/10/26 05:04:04;;;;;;;1.80;0.40;;;;;;;12.17;84.94;96079.84;6226422;28;20281;-59
2023/10/26 05:07:06;;;;;;;0.30;0.30;;;;;;;12.18;88.40;96095.59;6214349;28;20192;-59
2023/10/26 05:10:09;;;;;;;1.07;0.40;;;;;;;11.99;90.17;96089.47;6224594;28;20266;-58
2023/10/26 05:13:11;;;;;;;1.40;0.57;;;;;;;11.92;91.14;96099.69;6225512;28;20196;-59
2023/10/26 05:16:13;;;;;;;0.33;0.33;;;;;;;12.01;86.19;96088.09;6216151;28;20193;-58
2023/10/26 05:19:15;;;;;;;0.40;0.40;;;;;;;12.02;89.07;96102.22;6223599;28;20263;-59
2023/10/26 05:22:18;;;;;;;0.40;0.30;;;;;;;11.96;86.99;96106.84;6234414;28;20234;-60
2023/10/26 05:25:21;;;;;;;0.40;0.30;;;;;;;12.23;83.15;96108.06;6227756;28;20207;-59
2023/10/26 05:28:23;;;;;;;0.30;0.30;;;;;;;12.36;81.84;96104.63;6215874;28;20207;-58
2023/10/26 05:31:25;;;;;;;0.80;0.40;;;;;;;12.57;78.86;96119.28;6218844;28;20294;-59
2023/10/26 05:34:27;;;;;;;0.53;0.33;;;;;;;12.49;81.16;96114.59;6228917;28;20269;-59
2023/10/26 05:37:29;;;;;;;0.20;0.20;;;;;;;12.54;79.01;96108.38;6227388;28;20209;-59
2023/10/26 05:40:31;;;;;;;0.53;0.30;;;;;;;12.54;80.38;96113.72;6216151;28;20570;-58
2023/10/26 05:43:33;;;;;;;0.73;0.50;;;;;;;12.60;81.03;96116.00;6233446;28;20211;-59
2023/10/26 05:46:36;;;;;;;1.83;0.50;;;;;;;12.63;78.19;96115.41;6230079;28;20212;-58
2023/10/26 05:49:38;;;;;;;0.63;0.30;;;;;;;12.48;78.97;96085.50;6222848;28;20201;-58
2023/10/26 05:52:40;;;;;;;0.50;0.30;;;;;;;12.56;79.85;96111.53;6226247;28;20210;-59
2023/10/26 05:55:42;;;;;;;1.70;0.40;;;;;;;12.59;81.28;96121.63;6236534;28;20649;-59
2023/10/26 05:58:44;;;;;;;1.20;0.40;;;;;;;12.51;80.39;96117.78;6228723;28;20292;-58
2023/10/26 06:01:46;;;;;;;1.23;0.40;;;;;;;12.50;79.00;96132.19;6226593;28;20240;-59
2023/10/26 06:04:49;;;;;;;0.73;0.30;;;;;;;12.48;81.05;96134.38;6239171;28;20205;-59
2023/10/26 06:07:51;;;;;;;0.30;0.30;;;;;;;12.40;82.96;96140.38;6229769;28;20864;-59
2023/10/26 06:10:53;;;;;;;1.37;0.37;;;;;;;12.23;84.64;96146.25;6217285;28;20193;-60
2023/10/26 06:13:55;;;;;;;0.30;0.30;;;;;;;12.17;85.78;96146.59;6230767;28;20648;-58
2023/10/26 06:16:57;;;;;;;0.87;0.40;;;;;;;12.09;87.17;96148.03;6231079;28;20671;-59
2023/10/26 06:19:59;;;;;;;0.60;0.33;;;;;;;12.01;90.04;96148.69;6231644;28;20200;-60
2023/10/26 06:23:02;;;;;;;0.83;0.30;;;;;;;11.92;90.36;96150.41;6233635;28;20323;-60
2023/10/26 06:26:04;;;;;;;1.43;0.30;;;;;;;11.88;91.48;96168.88;6234583;28;20213;-59
2023/10/26 06:29:06;;;;;;;0.50;0.30;;;;;;;11.78;92.52;96158.31;6237337;28;20192;-58
2023/10/26 06:32:09;;;;;;;0.93;0.20;;;;;;;11.71;93.17;96163.19;6230154;28;20196;-59
2023/10/26 06:35:11;;;;;;;0.93;0.50;;;;;;;11.66;93.39;96165.91;6235435;28;20226;-60
2023/10/26 06:38:14;;;;;;;0.70;0.40;;;;;;;11.62;93.76;96173.69;6232368;28;20201;-58
2023/10/26 06:41:16;;;;;;;0.57;0.40;;;;;;;11.60;94.53;96165.19;6224900;28;20309;-59
2023/10/26 06:44:18;;;;;;;0.50;0.30;;;;;;;11.58;95.06;96172.69;6207192;28;20204;-57
2023/10/26 06:47:21;;;;;;;0.50;0.30;;;;;;;11.71;91.83;96166.66;6226941;28;20188;-58
2023/10/26 06:50:23;;;;;;;0.40;0.30;;;;;;;11.73;91.92;96166.38;6228931;28;20188;-59
2023/10/26 06:53:25;;;;;;;2.83;0.50;;;;;;;11.74;93.54;96167.97;6221756;28;20197;-58
2023/10/26 06:56:27;;;;;;;0.40;0.40;;;;;;;11.76;92.40;96168.47;6236188;28;20193;-58
2023/10/26 06:59:30;;;;;;;2.10;0.30;;;;;;;12.00;89.12;96185.25;6230342;28;20265;-57
2023/10/26 07:02:32;;;;;;;1.07;0.50;;;;;;;12.49;77.59;96181.34;6224972;28;20266;-59
2023/10/26 07:05:34;;;;;;;0.87;0.40;;;;;;;12.74;75.52;96184.72;6231478;28;20852;-59
2023/10/26 07:08:36;;;;;;;0.80;0.40;;;;;;;12.83;75.35;96180.28;6232118;28;20199;-60
2023/10/26 07:11:39;;;;;;;0.57;0.40;;;;;;;12.85;78.71;96178.09;6227793;28;20219;-58
2023/10/26 07:14:41;;;;;;;0.87;0.40;;;;;;;12.79;80.78;96179.28;6235520;22;20233;-59
2023/10/26 07:17:43;;;;;;;1.93;0.30;;;;;;;12.94;73.87;96171.00;6226998;28;20192;-59
2023/10/26 07:20:48;;;;;;;0.30;0.30;;;;;;;12.99;74.88;96170.13;6229479;28;20208;-60
2023/10/26 07:23:51;;;;;;;2.30;0.40;;;;;;;12.92;79.36;96173.19;6224483;28;20216;-59
2023/10/26 07:26:53;;;;;;;3.03;0.50;;;;;;;12.84;84.27;96174.66;6222753;28;20702;-57
2023/10/26 07:29:56;;;;;;;1.73;0.30;;;;;;;12.77;85.08;96182.25;6232543;28;20200;-58
2023/10/26 07:32:58;;;;;;;2.63;0.40;;;;;;;12.78;85.90;96185.72;6226564;28;20559;-57
2023/10/26 07:36:01;;;;;;;0.40;0.30;;;;;;;12.78;85.46;96199.09;6223575;28;20656;-57
2023/10/26 07:39:03;;;;;;;0.70;0.30;;;;;;;12.92;80.22;96189.22;6236126;28;20824;-57
2023/10/26 07:42:25;;;;;;;0.70;0.40;;;;;;;12.97;80.19;96181.13;6228611;28;20616;-57
2023/10/26 07:45:27;;;;;;;2.10;0.40;;;;;;;13.06;80.99;96181.25;6227135;28;20199;-56
2023/10/26 07:48:34;;;;;;;0.73;0.40;;;;;;;13.06;81.59;96186.59;6227942;28;20250;-57
2023/10/26 07:51:36;;;;;;;0.30;0.20;;;;;;;13.07;83.24;96183.63;6226926;28;20697;-57
2023/10/26 07:54:38;;;;;;;0.60;0.30;;;;;;;13.05;85.04;96182.31;6216312;28;20280;-56
2023/10/26 07:57:41;;;;;;;0.30;0.30;;;;;;;13.08;85.26;96182.53;6228283;28;20197;-56
2023/10/26 08:00:44;;;;;;;0.43;0.40;;;;;;;13.12;83.26;96180.84;6229992;28;20219;-55
2023/10/26 08:03:46;;;;;;;1.13;0.30;;;;;;;13.20;84.26;96187.41;6228854;28;20200;-55
2023/10/26 08:06:48;;;;;;;3.43;0.40;;;;;;;13.29;85.76;96184.88;6223093;28;20425;-56
2023/10/26 08:09:50;;;;;;;0.73;0.30;;;;;;;13.36;87.14;96187.97;6233050;28;20204;-56
2023/10/26 08:12:53;;;;;;;1.00;0.20;;;;;;;13.44;87.96;96187.25;6223462;28;20223;-55
2023/10/26 08:15:55;;;;;;;0.33;0.30;;;;;;;13.50;87.41;96191.44;6217515;28;20734;-55
2023/10/26 08:19:17;;;;;;;0.67;0.30;;;;;;;13.58;87.30;96195.28;6225090;28;20681;-56
2023/10/26 08:22:20;;;;;;;0.43;0.30;;;;;;;13.63;86.67;96190.63;6217521;28;20205;-56
2023/10/26 08:25:23;;;;;;;0.37;0.20;;;;;;;13.75;85.75;96200.84;6226463;28;20197;-55
2023/10/26 08:28:27;;;;;;;1.50;0.30;;;;;;;13.85;84.00;96199.84;6229953;28;20593;-55
2023/10/26 08:31:34;;;;;;;1.20;0.50;;;;;;;13.97;77.16;96194.00;6232333;28;20189;-55
2023/10/26 08:34:37;;;;;;;0.40;0.30;;;;;;;14.00;82.93;96182.69;6228114;28;20640;-57
2023/10/26 08:37:39;;;;;;;0.20;0.20;;;;;;;14.11;83.34;96195.56;6224070;28;20275;-55
2023/10/26 08:40:51;;;;;;;0.80;0.30;;;;;;;14.19;83.19;96200.22;6234205;28;20227;-57
2023/10/26 08:43:53;;;;;;;1.23;0.40;;;;;;;14.25;82.20;96200.88;6228083;28;20270;-60
2023/10/26 08:47:02;;;;;;;1.37;0.30;;;;;;;14.32;82.08;96206.59;6224200;28;20644;-54
2023/10/26 08:50:06;;;;;;;1.03;0.40;;;;;;;14.19;75.31;96176.09;6221124;28;20863;-53
2023/10/26 08:53:18;;;;;;;0.30;0.30;;;;;;;14.49;77.82;96203.34;6233243;28;20196;-52
2023/10/26 08:56:23;;;;;;;0.50;0.30;;;;;;;14.56;75.80;96195.66;6227318;28;20193;-48
2023/10/26 08:59:27;;;;;;;0.93;0.40;;;;;;;14.67;71.35;96191.63;6225782;28;20206;-51
2023/10/26 09:02:29;;;;;;;1.23;0.40;;;;;;;14.68;66.22;96169.13;6233387;28;20209;-51
2023/10/26 09:05:32;;;;;;;1.50;0.60;;;;;;;14.94;61.45;96195.31;6227776;28;20250;-51
2023/10/26 09:08:34;;;;;;;0.43;0.37;;;;;;;15.00;63.02;96201.31;6220805;28;20193;-52
2023/10/26 09:11:36;;;;;;;0.87;0.30;;;;;;;15.07;62.51;96197.09;6222927;28;20707;-50
2023/10/26 09:14:38;;;;;;;0.83;0.37;;;;;;;15.14;58.83;96202.84;6225067;28;20305;-55
2023/10/26 09:17:40;;;;;;;0.77;0.40;;;;;;;15.09;61.26;96202.97;6220664;28;20188;-55
2023/10/26 09:21:03;;;;;;;0.63;0.50;;;;;;;15.08;59.23;96204.06;6217313;28;20577;-52
2023/10/26 09:24:18;;;;;;;0.60;0.53;;;;;;;15.11;61.46;96208.81;6220116;28;20197;-54
2023/10/26 09:27:21;;;;;;;0.50;0.30;;;;;;;15.18;58.39;96208.38;6214187;28;20649;-52
2023/10/26 09:30:31;;;;;;;0.20;0.20;;;;;;;15.23;59.24;96203.69;6220773;28;20681;-53
2023/10/26 09:33:33;;;;;;;0.43;0.40;;;;;;;15.27;59.00;96203.88;6222599;28;20196;-52
2023/10/26 09:36:35;;;;;;;0.30;0.30;;;;;;;15.32;60.40;96202.91;6216403;28;20671;-51
2023/10/26 09:39:41;;;;;;;0.20;0.20;;;;;;;15.32;61.17;96202.91;6215660;28;20679;-49
2023/10/26 09:42:43;;;;;;;0.97;0.50;;;;;;;15.11;60.60;96165.09;6233981;28;20208;-53
2023/10/26 09:45:46;;;;;;;1.03;0.50;;;;;;;15.34;61.63;96195.38;6214530;28;20551;-53
2023/10/26 09:48:49;;;;;;;0.97;0.30;;;;;;;15.41;57.62;96193.81;6215636;28;20198;-52
2023/10/26 09:51:52;;;;;;;0.53;0.40;;;;;;;15.42;59.56;96191.94;6218864;28;20203;-53
2023/10/26 09:54:55;;;;;;;1.00;0.50;;;;;;;15.41;59.47;96179.59;6215667;28;20197;-54
2023/10/26 09:58:04;;;;;;;0.27;0.23;;;;;;;15.45;61.42;96184.03;6218425;28;20192;-52
2023/10/26 10:01:33;;;;;;;2.40;0.33;;;;;;;15.53;57.90;96176.34;6216424;28;20660;-53
2023/10/26 10:04:37;;;;;;;0.80;0.50;;;;;;;15.46;64.36;96179.47;6219790;28;20196;-50
2023/10/26 10:07:42;;;;;;;1.20;0.50;;;;;;;15.24;60.74;96174.97;6214769;28;20197;-51
2023/10/26 10:11:15;;;;;;;0.30;0.30;;;;;;;15.17;58.31;96172.72;6214640;28;20682;-52
2023/10/26 10:14:51;;;;;;;0.83;0.30;;;;;;;15.20;65.46;96164.03;6176758;28;1240423;-52
2023/10/26 10:17:58;;;;;;;1.00;0.30;;;;;;;15.20;65.51;96163.25;6214887;28;20190;-52
2023/10/26 10:21:33;;;;;;;0.53;0.30;;;;;;;15.16;66.25;96159.59;6213479;28;20204;-51
2023/10/26 10:24:44;;;;;;;0.87;0.50;;;;;;;15.06;62.79;96160.66;6213067;28;20204;-52
2023/10/26 10:27:50;;;;;;;1.10;0.23;;;;;;;15.05;64.56;96163.66;6217145;28;20205;-51
2023/10/26 10:30:59;;;;;;;0.50;0.30;;;;;;;14.99;60.49;96160.31;6206155;28;20207;-52
2023/10/26 10:34:02;;;;;;;1.73;0.40;;;;;;;15.15;60.65;96153.44;6227957;28;21008;-52
2023/10/26 10:37:12;;;;;;;1.00;0.40;;;;;;;15.25;61.87;96143.56;6227015;28;20193;-52
2023/10/26 10:40:19;;;;;;;0.57;0.30;;;;;;;15.12;66.13;96118.41;6218359;28;20283;-51
2023/10/26 10:43:35;;;;;;;1.10;0.33;;;;;;;15.33;67.50;96140.13;6229370;28;20208;-52
2023/10/26 10:46:38;;;;;;;2.60;0.50;;;;;;;15.44;67.50;96130.69;6227933;28;20673;-52
2023/10/26 10:49:40;;;;;;;0.30;0.20;;;;;;;15.55;66.03;96128.50;6225093;28;20557;-51
2023/10/26 10:52:42;;;;;;;0.70;0.30;;;;;;;15.66;65.09;96113.72;6224109;28;20192;-52
2023/10/26 10:55:45;;;;;;;0.30;0.30;;;;;;;15.57;56.85;96092.22;6218879;28;20200;-51
2023/10/26 10:58:47;;;;;;;0.27;0.20;;;;;;;15.75;58.58;96109.16;6232736;28;20189;-53
2023/10/26 11:02:05;;;;;;;0.33;0.23;;;;;;;15.85;58.63;96119.59;6220902;28;20213;-51
2023/10/26 11:05:07;;;;;;;0.77;0.40;;;;;;;15.91;55.83;96113.00;6228568;28;20649;-50
2023/10/26 11:08:19;;;;;;;0.83;0.30;;;;;;;15.94;58.88;96116.94;6234015;28;20247;-53
2023/10/26 11:11:26;;;;;;;0.73;0.37;;;;;;;15.99;61.06;96117.56;6223643;28;20636;-51
2023/10/26 11:14:28;;;;;;;0.90;0.40;;;;;;;16.04;60.11;96131.97;6229829;28;20728;-52
2023/10/26 11:17:31;;;;;;;0.80;0.40;;;;;;;16.02;59.34;96123.44;6227873;28;20200;-52
2023/10/26 11:20:36;;;;;;;0.30;0.30;;;;;;;16.00;58.51;96121.03;6225784;28;20275;-52
2023/10/26 11:23:38;;;;;;;0.87;0.37;;;;;;;15.94;58.02;96136.53;6219078;28;20266;-50
2023/10/26 11:26:40;;;;;;;0.33;0.33;;;;;;;15.82;57.67;96138.25;6222688;28;20195;-51
2023/10/26 11:29:44;;;;;;;0.80;0.40;;;;;;;15.76;59.33;96132.22;6229341;28;20269;-52
2023/10/26 11:32:46;;;;;;;0.40;0.40;;;;;;;15.67;61.69;96115.31;6221363;28;20191;-51
2023/10/26 11:35:48;;;;;;;0.30;0.30;;;;;;;15.62;62.54;96124.28;6219250;28;20577;-52
2023/10/26 11:38:51;;;;;;;1.97;0.50;;;;;;;15.52;64.83;96121.88;6222933;28;20660;-52
2023/10/26 11:41:55;;;;;;;0.67;0.40;;;;;;;15.46;67.13;96104.31;6222442;28;20244;-52
2023/10/26 11:44:57;;;;;;;0.70;0.40;;;;;;;15.41;69.24;96099.09;6213822;28;20196;-49
2023/10/26 11:48:00;;;;;;;1.07;0.53;;;;;;;15.39;70.52;96102.09;6235457;28;20197;-49
2023/10/26 11:51:05;;;;;;;2.97;0.40;;;;;;;15.45;70.70;96108.13;6228101;28;20659;-52
2023/10/26 11:54:12;;;;;;;1.57;0.50;;;;;;;15.49;71.46;96106.41;6220990;28;20547;-52
2023/10/26 11:57:14;;;;;;;0.40;0.30;;;;;;;15.48;71.55;96116.34;6228312;28;20197;-50
2023/10/26 12:00:17;;;;;;;0.70;0.50;;;;;;;15.48;71.10;96116.34;6219580;28;20193;-50
2023/10/26 12:03:20;;;;;;;0.40;0.30;;;;;;;15.48;71.58;96107.50;6224851;28;20201;-52
2023/10/26 12:06:22;;;;;;;0.70;0.37;;;;;;;15.43;72.57;96116.47;6230962;28;20360;-50
2023/10/26 12:09:24;;;;;;;0.63;0.37;;;;;;;15.41;71.91;96118.66;6232972;28;20192;-51
2023/10/26 12:12:26;;;;;;;0.50;0.40;;;;;;;15.40;72.64;96114.41;6220471;28;20196;-51
2023/10/26 12:15:30;;;;;;;0.80;0.47;;;;;;;15.22;73.58;96084.06;6221513;28;20704;-50
2023/10/26 12:18:35;;;;;;;1.13;0.40;;;;;;;15.43;73.25;96119.16;6227351;28;20197;-50
2023/10/26 12:21:37;;;;;;;1.27;0.23;;;;;;;15.44;74.10;96107.31;6210335;28;20213;-50
2023/10/26 12:24:39;;;;;;;2.67;0.43;;;;;;;15.52;74.40;96100.41;6224801;28;20780;-53
2023/10/26 12:27:41;;;;;;;1.30;0.60;;;;;;;15.60;73.30;96096.94;6224538;28;20196;-50
2023/10/26 12:31:03;;;;;;;0.50;0.50;;;;;;;15.66;73.44;96094.94;6215308;28;20216;-50
2023/10/26 12:34:05;;;;;;;2.53;0.60;;;;;;;15.69;72.32;96095.09;6224074;28;20291;-51
2023/10/26 12:37:08;;;;;;;1.00;0.70;;;;;;;15.71;68.88;96089.41;6213780;28;20251;-53
2023/10/26 12:40:10;;;;;;;0.50;0.50;;;;;;;15.77;68.43;96085.50;6233335;28;20197;-55
2023/10/26 12:43:12;;;;;;;0.50;0.50;;;;;;;15.83;69.15;96080.75;6226428;28;20196;-55
2023/10/26 12:46:14;;;;;;;0.60;0.50;;;;;;;15.84;70.48;96082.31;6224398;28;20200;-54
2023/10/26 12:49:17;;;;;;;1.63;0.60;;;;;;;15.59;69.88;96051.63;6227101;28;20270;-56
2023/10/26 12:52:19;;;;;;;0.67;0.50;;;;;;;15.83;68.47;96102.25;6231087;28;20691;-56
2023/10/26 12:55:23;;;;;;;0.63;0.40;;;;;;;15.82;69.39;96100.66;6222255;28;20223;-57
2023/10/26 12:58:25;;;;;;;2.93;0.50;;;;;;;15.80;69.53;96109.00;6225495;28;20203;-57
2023/10/26 13:01:28;;;;;;;1.17;0.57;;;;;;;15.81;68.65;96102.56;6227872;28;20579;-55
2023/10/26 13:04:30;;;;;;;0.80;0.40;;;;;;;15.82;68.76;96111.41;6220730;28;20562;-56
2023/10/26 13:07:33;;;;;;;0.57;0.30;;;;;;;15.84;69.87;96109.19;6216226;28;20661;-56
2023/10/26 13:10:36;;;;;;;0.43;0.40;;;;;;;15.84;70.96;96122.59;6212822;28;20668;-56
2023/10/26 13:13:39;;;;;;;0.37;0.37;;;;;;;15.82;71.87;96106.03;6217464;28;20239;-56
2023/10/26 13:16:41;;;;;;;0.67;0.40;;;;;;;15.77;73.91;96115.03;6221587;28;20196;-56
2023/10/26 13:19:59;;;;;;;0.67;0.37;;;;;;;15.73;75.59;96101.44;6215939;28;20199;-55
2023/10/26 13:23:01;;;;;;;0.87;0.30;;;;;;;15.70;76.00;96106.63;6221639;28;20207;-56
2023/10/26 13:26:03;;;;;;;0.67;0.47;;;;;;;15.66;76.43;96106.47;6223533;28;20924;-56
2023/10/26 13:29:06;;;;;;;1.17;0.67;;;;;;;15.63;77.81;96106.28;6212876;28;20203;-56
2023/10/26 13:32:08;;;;;;;1.10;0.57;;;;;;;15.57;78.40;96102.16;6232716;28;20545;-56
2023/10/26 13:35:11;;;;;;;1.13;0.30;;;;;;;15.44;78.24;96087.75;6218237;28;20543;-54
2023/10/26 13:38:13;;;;;;;0.80;0.50;;;;;;;15.49;76.22;96112.53;6215200;28;20195;-55
2023/10/26 13:41:16;;;;;;;0.83;0.50;;;;;;;15.46;70.13;96110.47;6235522;28;20683;-55
2023/10/26 13:44:18;;;;;;;0.67;0.47;;;;;;;15.43;68.32;96104.97;6220063;28;20747;-56
2023/10/26 13:47:20;;;;;;;1.20;0.40;;;;;;;15.42;69.21;96092.66;6226425;28;20196;-56
2023/10/26 13:50:22;;;;;;;0.70;0.30;;;;;;;15.43;69.25;96078.13;6225937;28;20251;-57
2023/10/26 13:53:24;;;;;;;0.30;0.30;;;;;;;15.44;68.48;96071.66;6229765;28;20223;-57
2023/10/26 13:56:26;;;;;;;0.30;0.30;;;;;;;15.41;68.41;96067.69;6222165;28;20694;-57
2023/10/26 13:59:29;;;;;;;0.63;0.40;;;;;;;15.40;68.96;96065.31;6219749;28;20284;-56
2023/10/26 14:02:31;;;;;;;0.50;0.30;;;;;;;15.38;70.25;96067.53;6227079;28;20204;-55
2023/10/26 14:05:37;;;;;;;0.40;0.40;;;;;;;15.15;71.19;96051.53;6229206;28;20189;-55
2023/10/26 14:08:39;;;;;;;0.50;0.37;;;;;;;15.27;72.15;96085.00;6221906;28;20722;-56
2023/10/26 14:11:42;;;;;;;0.60;0.40;;;;;;;15.19;74.87;96097.31;6226255;28;20189;-60
2023/10/26 14:14:44;;;;;;;1.63;0.40;;;;;;;15.10;78.61;96101.84;6227395;28;20354;-54
2023/10/26 14:17:47;;;;;;;1.67;0.50;;;;;;;14.97;81.24;96108.88;6226706;28;20196;-52
2023/10/26 14:20:49;;;;;;;0.73;0.50;;;;;;;14.90;81.24;96111.19;6221992;28;20211;-53
2023/10/26 14:23:51;;;;;;;0.93;0.47;;;;;;;14.82;82.57;96109.25;6231585;28;20326;-51